Portada
METAR-TAF:

METAR-TAF

Aeroports :

Koror, Babeldaob, Palau

latitud: 07-22N, longitud: 134-32E, altitud: 54 m

Observació

L'informe es va fer fa 2 hores i 7 minuts, a les 16:50 UTC
Vent calma
Temperatura 25°C
Humitat 94%
Pressió 1010 hPa
Visibilitat: 20.9 km
Cel ennuvolat a una alçada de 1600 ft, Cumulonimbus.
Cel cobert a una alçada de 30000 ft

METAR: PTRO 151650Z 00000KT 13SM BKN016CB OVC300 25/24 A2982 RMK CB ALQDS

Hora: 03:57 (18:57 UTC)

Pronòstic

L'informe es va fer fa 1 hora i 25 minuts, a les 17:32 UTC
Pronòstic vàlid del 15 a les 18 UTC al 16 a les 18 UTC
Vent 6 kt amb direcció variable
Visibilitat: 10 km
Núvols disperses a una alçada de 1600 ft
Cel cobert a una alçada de 12000 ft
xàfecs en les proximitats
Temporalment
l' 15 a les 18 UTC al 15 a les 22 UTC
Visibilitat: 6.4 km
Cel ennuvolat a una alçada de 1500 ft
xàfecs de pluja

TAF: PTRO 151732Z 1518/1618 VRB06KT P6SM VCSH SCT016 OVC120 TEMPO 1518/1522 4SM SHRA BKN015

Observacions i pronòstics meteorològics de més de 4000 aeroports (METAR i TAF).

Les estacions disponibles són els punts grocs i vermells al mapa.

Posi el ratolí al punt desitjat per veure el nom de l'estació.

Feu clic per veure les observacions i els pronòstics meteorològics.

Per canviar el mapa: feu clic els botons verds amb una creu de color negre per apropar; al botó verd amb un guió per allunyar la imatge; o en les fletxes verdes per a mapes adjacents.


METAR-TAF: